createdAt,value
2022-08-14T00:02:27.137Z,101299.84
2022-08-14T00:04:55.220Z,101297.28
2022-08-14T00:07:22.961Z,101295.56
2022-08-14T00:10:02.202Z,101289.78
2022-08-14T00:12:39.838Z,101285.56
2022-08-14T00:15:11.800Z,101282.66
2022-08-14T00:17:47.856Z,101284.56
2022-08-14T00:20:23.731Z,101282.00
2022-08-14T00:22:58.779Z,101279.06
2022-08-14T00:25:42.465Z,101285.84
2022-08-14T00:28:15.020Z,101286.97
2022-08-14T00:30:47.488Z,101284.03
2022-08-14T00:33:16.458Z,101277.44
2022-08-14T00:36:37.319Z,101270.81
2022-08-14T00:38:32.196Z,101262.22
2022-08-14T00:41:03.128Z,101268.63
2022-08-14T00:43:32.200Z,101268.97
2022-08-14T00:46:05.309Z,101259.16
2022-08-14T00:48:36.876Z,101257.06
2022-08-14T00:51:08.921Z,101268.78
2022-08-14T00:53:37.143Z,101265.47
2022-08-14T00:56:08.318Z,101260.53
2022-08-14T00:58:36.296Z,101249.53
2022-08-14T01:01:17.191Z,101245.03
2022-08-14T01:03:45.263Z,101241.72
2022-08-14T01:06:14.091Z,101250.66
2022-08-14T01:08:51.114Z,101243.69
2022-08-14T01:11:25.504Z,101229.00
2022-08-14T01:14:01.534Z,101237.91
2022-08-14T01:16:34.019Z,101233.78
2022-08-14T01:19:19.846Z,101234.97
2022-08-14T01:21:53.147Z,101222.31
2022-08-14T01:24:28.964Z,101226.69
2022-08-14T01:27:00.268Z,101225.41
2022-08-14T01:29:58.171Z,101218.91
2022-08-14T01:32:22.963Z,101221.31
2022-08-14T01:35:18.907Z,101213.53
2022-08-14T01:37:44.584Z,101208.19
2022-08-14T01:40:15.554Z,101208.56
2022-08-14T01:42:48.766Z,101206.81
2022-08-14T01:45:17.734Z,101201.50
2022-08-14T01:48:03.545Z,101201.03
2022-08-14T01:50:32.727Z,101190.41
2022-08-14T01:53:03.027Z,101192.81
2022-08-14T01:55:32.276Z,101187.84
2022-08-14T01:58:19.526Z,101182.06
2022-08-14T02:00:54.061Z,101179.13
2022-08-14T02:03:23.400Z,101184.34
2022-08-14T02:05:51.035Z,101181.03
2022-08-14T02:08:22.608Z,101182.59
2022-08-14T02:11:23.740Z,101178.44
2022-08-14T02:13:53.274Z,101174.34
2022-08-14T02:16:25.304Z,101174.69
2022-08-14T02:18:55.228Z,101172.56
2022-08-14T02:21:23.457Z,101160.75
2022-08-14T02:23:54.233Z,101165.16
2022-08-14T02:26:29.032Z,101162.66
2022-08-14T02:29:00.017Z,101164.69
2022-08-14T02:31:42.437Z,101166.22
2022-08-14T02:34:22.043Z,101162.09
2022-08-14T02:37:03.509Z,101151.13
2022-08-14T02:39:38.087Z,101154.69
2022-08-14T02:42:06.507Z,101155.06
2022-08-14T02:44:40.694Z,101158.25
2022-08-14T02:47:15.105Z,101155.78
2022-08-14T02:49:50.472Z,101150.81
2022-08-14T02:52:56.024Z,101153.19
2022-08-14T02:55:11.082Z,101150.72
2022-08-14T02:57:41.054Z,101144.94
2022-08-14T03:00:09.877Z,101140.84
2022-08-14T03:02:56.491Z,101137.91
2022-08-14T03:05:26.345Z,101134.94
2022-08-14T03:07:54.299Z,101138.97
2022-08-14T03:10:28.209Z,101137.69
2022-08-14T03:13:00.637Z,101140.06
2022-08-14T03:15:28.385Z,101136.75
2022-08-14T03:17:57.471Z,101133.81
2022-08-14T03:20:28.255Z,101137.81
2022-08-14T03:22:56.063Z,101134.56
2022-08-14T03:25:24.958Z,101131.25
2022-08-14T03:27:58.671Z,101133.59
2022-08-14T03:30:39.498Z,101127.47
2022-08-14T03:33:10.319Z,101127.00
2022-08-14T03:35:59.580Z,101127.72
2022-08-14T03:39:13.832Z,101118.75
2022-08-14T03:41:17.354Z,101119.47
2022-08-14T03:43:45.448Z,101123.13
2022-08-14T03:46:51.767Z,101109.69
2022-08-14T03:49:02.975Z,101108.88
2022-08-14T03:51:31.188Z,101113.56
2022-08-14T03:54:00.276Z,101117.59
2022-08-14T03:56:30.040Z,101117.59
2022-08-14T03:59:00.176Z,101118.31
2022-08-14T04:01:29.450Z,101110.16
2022-08-14T04:04:09.774Z,101110.50
2022-08-14T04:06:44.555Z,101111.69
2022-08-14T04:09:16.884Z,101109.22
2022-08-14T04:11:46.257Z,101115.25
2022-08-14T04:14:16.509Z,101108.28
2022-08-14T04:16:48.055Z,101110.28
2022-08-14T04:19:24.079Z,101114.28
2022-08-14T04:22:02.189Z,101109.03
2022-08-14T04:24:31.788Z,101107.38
2022-08-14T04:27:09.475Z,101104.88
2022-08-14T04:29:38.172Z,101106.06
2022-08-14T04:33:02.205Z,101105.59
2022-08-14T04:34:56.269Z,101104.78
2022-08-14T04:37:41.782Z,101101.13
2022-08-14T04:40:27.738Z,101099.94
2022-08-14T04:43:17.245Z,101095.91
2022-08-14T04:45:45.557Z,101090.59
2022-08-14T04:48:39.722Z,101086.94
2022-08-14T04:51:09.461Z,101087.78
2022-08-14T04:53:41.066Z,101095.91
2022-08-14T04:56:30.636Z,101086.22
2022-08-14T04:59:05.039Z,101083.88
2022-08-14T05:01:40.352Z,101083.88
2022-08-14T05:04:08.587Z,101081.50
2022-08-14T05:06:39.128Z,101094.09
2022-08-14T05:09:13.931Z,101086.44
2022-08-14T05:11:42.416Z,101082.41
2022-08-14T05:14:33.127Z,101076.03
2022-08-14T05:17:01.812Z,101076.97
2022-08-14T05:19:30.037Z,101076.25
2022-08-14T05:22:16.516Z,101069.41
2022-08-14T05:24:45.613Z,101069.88
2022-08-14T05:27:22.969Z,101070.81
2022-08-14T05:29:55.280Z,101063.59
2022-08-14T05:32:23.498Z,101073.38
2022-08-14T05:34:58.016Z,101067.81
2022-08-14T05:37:26.602Z,101074.44
2022-08-14T05:39:54.900Z,101074.19
2022-08-14T05:42:29.222Z,101069.75
2022-08-14T05:45:11.274Z,101066.69
2022-08-14T05:47:41.923Z,101057.44
2022-08-14T05:50:18.738Z,101055.53
2022-08-14T05:52:48.054Z,101055.75
2022-08-14T05:55:15.707Z,101052.63
2022-08-14T05:57:48.969Z,101046.69
2022-08-14T06:00:24.968Z,101050.91
2022-08-14T06:02:57.820Z,101059.94
2022-08-14T06:05:29.110Z,101055.66
2022-08-14T06:07:57.382Z,101052.19
2022-08-14T06:10:25.374Z,101041.88
2022-08-14T06:12:57.261Z,101042.06
2022-08-14T06:15:30.264Z,101044.25
2022-08-14T06:18:00.283Z,101048.06
2022-08-14T06:20:28.705Z,101045.06
2022-08-14T06:22:58.015Z,101042.41
2022-08-14T06:25:27.120Z,101040.16
2022-08-14T06:27:55.397Z,101038.81
2022-08-14T06:30:30.413Z,101045.59
2022-08-14T06:33:15.737Z,101038.31
2022-08-14T06:35:43.614Z,101037.66
2022-08-14T06:38:17.474Z,101041.03
2022-08-14T06:40:46.163Z,101033.16
2022-08-14T06:43:15.390Z,101042.69
2022-08-14T06:45:54.040Z,101039.28
2022-08-14T06:48:23.672Z,101041.09
2022-08-14T06:50:52.129Z,101036.28
2022-08-14T06:53:19.891Z,101034.41
2022-08-14T06:55:58.510Z,101041.41
2022-08-14T06:58:30.901Z,101037.59
2022-08-14T07:01:24.922Z,101029.66
2022-08-14T07:04:22.915Z,101038.81
2022-08-14T07:06:51.426Z,101042.97
2022-08-14T07:09:23.208Z,101039.66
2022-08-14T07:11:51.574Z,101040.38
2022-08-14T07:14:19.153Z,101030.44
2022-08-14T07:16:48.061Z,101025.41
2022-08-14T07:19:17.664Z,101020.44
2022-08-14T07:21:49.211Z,101015.28
2022-08-14T07:24:22.068Z,101013.41
2022-08-14T07:26:53.905Z,101020.16
2022-08-14T07:29:26.071Z,101012.91
2022-08-14T07:31:55.359Z,101018.06
2022-08-14T07:34:36.272Z,101025.81
2022-08-14T07:37:04.655Z,101023.78
2022-08-14T07:39:34.547Z,101027.16
2022-08-14T07:42:02.926Z,101021.31
2022-08-14T07:44:35.905Z,101015.19
2022-08-14T07:47:16.760Z,101019.47
2022-08-14T07:49:55.614Z,101021.44
2022-08-14T07:52:40.550Z,101028.75
2022-08-14T07:55:10.119Z,101025.50
2022-08-14T07:57:38.346Z,101021.94
2022-08-14T08:00:12.521Z,101015.56
2022-08-14T08:03:00.644Z,101020.03
2022-08-14T08:05:28.356Z,101017.31
2022-08-14T08:07:55.889Z,101022.38
2022-08-14T08:10:46.923Z,101015.91
2022-08-14T08:13:23.907Z,101011.50
2022-08-14T08:15:53.815Z,101008.59
2022-08-14T08:18:29.617Z,101008.84
2022-08-14T08:21:00.290Z,101008.84
2022-08-14T08:23:34.508Z,101004.88
2022-08-14T08:26:08.478Z,101006.97
2022-08-14T08:28:36.462Z,100999.22
2022-08-14T08:31:05.713Z,100992.88
2022-08-14T08:33:37.092Z,100988.34
2022-08-14T08:36:07.952Z,100978.25
2022-08-14T08:39:16.287Z,100977.69
2022-08-14T08:41:24.756Z,100980.38
2022-08-14T08:43:54.304Z,100975.81
2022-08-14T08:46:24.285Z,100972.19
2022-08-14T08:51:22.293Z,100961.28
2022-08-14T08:53:59.866Z,100956.94
2022-08-14T08:56:39.959Z,100956.81
2022-08-14T08:59:18.596Z,100955.19
2022-08-14T09:01:51.389Z,100955.28
2022-08-14T09:04:26.236Z,100956.75
2022-08-14T09:07:09.029Z,100948.97
2022-08-14T09:09:54.281Z,100961.09
2022-08-14T09:12:32.491Z,100949.13
2022-08-14T09:15:02.009Z,100947.22
2022-08-14T09:17:29.940Z,100952.09
2022-08-14T09:20:02.197Z,100943.34
2022-08-14T09:22:34.739Z,100950.78
2022-08-14T09:25:04.067Z,100947.91
2022-08-14T09:27:35.221Z,100947.28
2022-08-14T09:30:31.675Z,100955.66
2022-08-14T09:32:59.362Z,100956.28
2022-08-14T09:35:34.020Z,100950.56
2022-08-14T09:38:07.344Z,100942.38
2022-08-14T09:40:51.546Z,100950.03
2022-08-14T09:43:29.771Z,100943.75
2022-08-14T09:46:01.010Z,100945.22
2022-08-14T09:48:31.391Z,100940.97
2022-08-14T09:54:12.939Z,100934.34
2022-08-14T09:56:30.259Z,100932.78
2022-08-14T09:58:59.653Z,100918.97
2022-08-14T10:01:37.440Z,100920.91
2022-08-14T10:04:13.515Z,100928.09
2022-08-14T10:06:56.426Z,100911.72
2022-08-14T10:09:24.710Z,100917.41
2022-08-14T10:11:59.078Z,100914.81
2022-08-14T10:14:35.255Z,100906.94
2022-08-14T10:17:05.238Z,100908.59
2022-08-14T10:19:35.298Z,100898.25
2022-08-14T10:23:14.697Z,100894.41
2022-08-14T10:24:56.085Z,100883.31
2022-08-14T10:27:24.486Z,100882.66
2022-08-14T10:29:55.669Z,100892.56
2022-08-14T10:32:36.202Z,100882.16
2022-08-14T10:35:13.585Z,100873.44
2022-08-14T10:37:46.432Z,100865.50
2022-08-14T10:40:38.515Z,100866.31
2022-08-14T10:43:03.476Z,100849.84
2022-08-14T10:45:35.389Z,100856.13
2022-08-14T10:48:09.711Z,100847.09
2022-08-14T10:50:53.596Z,100850.47
2022-08-14T10:53:37.024Z,100845.13
2022-08-14T10:56:21.663Z,100842.88
2022-08-14T10:59:01.665Z,100839.97
2022-08-14T11:01:31.349Z,100842.81
2022-08-14T11:04:00.528Z,100844.72
2022-08-14T11:06:28.476Z,100842.00
2022-08-14T11:08:57.436Z,100850.31
2022-08-14T11:11:35.840Z,100837.53
2022-08-14T11:14:06.527Z,100832.84
2022-08-14T11:16:39.274Z,100826.84
2022-08-14T11:19:09.892Z,100826.66
2022-08-14T11:21:40.625Z,100817.94
2022-08-14T11:24:50.500Z,100820.19
2022-08-14T11:27:03.570Z,100829.31
2022-08-14T11:29:36.016Z,100820.53
2022-08-14T11:32:04.305Z,100816.72
2022-08-14T11:34:34.846Z,100822.44
2022-08-14T11:37:18.069Z,100828.09
2022-08-14T11:39:52.721Z,100818.91
2022-08-14T11:42:58.572Z,100812.44
2022-08-14T11:45:10.991Z,100813.56
2022-08-14T11:47:44.142Z,100805.97
2022-08-14T11:50:36.796Z,100804.03
2022-08-14T11:53:06.875Z,100801.75
2022-08-14T11:55:38.044Z,100801.75
2022-08-14T11:58:08.671Z,100801.44
2022-08-14T12:00:46.563Z,100807.63
2022-08-14T12:03:17.817Z,100814.41
2022-08-14T12:05:50.272Z,100811.47
2022-08-14T12:08:24.493Z,100810.69
2022-08-14T12:10:59.004Z,100797.56
2022-08-14T12:13:31.865Z,100788.84
2022-08-14T12:16:06.605Z,100790.78
2022-08-14T12:18:39.391Z,100789.03
2022-08-14T12:21:15.793Z,100782.38
2022-08-14T12:23:47.384Z,100777.38
2022-08-14T12:26:39.994Z,100772.00
2022-08-14T12:29:09.091Z,100773.94
2022-08-14T12:31:44.270Z,100769.25
2022-08-14T12:34:13.532Z,100772.50
2022-08-14T12:36:47.796Z,100776.53
2022-08-14T12:39:19.247Z,100774.91
2022-08-14T12:41:57.190Z,100778.78
2022-08-14T12:44:35.570Z,100771.69
2022-08-14T12:47:04.125Z,100759.22
2022-08-14T12:49:34.942Z,100759.84
2022-08-14T12:52:03.749Z,100754.19
2022-08-14T12:54:32.279Z,100749.69
2022-08-14T12:57:10.366Z,100752.31
2022-08-14T12:59:46.378Z,100729.69
2022-08-14T13:02:26.502Z,100733.84
2022-08-14T13:04:55.767Z,100729.97
2022-08-14T13:07:24.992Z,100724.81
2022-08-14T13:09:55.489Z,100718.16
2022-08-14T13:12:34.867Z,100718.25
2022-08-14T13:15:11.797Z,100716.13
2022-08-14T13:17:44.687Z,100718.88
2022-08-14T13:20:23.217Z,100713.03
2022-08-14T13:22:52.793Z,100707.25
2022-08-14T13:25:21.181Z,100710.16
2022-08-14T13:27:54.720Z,100702.19
2022-08-14T13:30:24.189Z,100703.97
2022-08-14T13:32:53.011Z,100696.84
2022-08-14T13:35:22.465Z,100694.25
2022-08-14T13:37:52.372Z,100692.28
2022-08-14T13:40:26.437Z,100688.28
2022-08-14T13:42:57.573Z,100685.84
2022-08-14T13:45:33.860Z,100684.41
2022-08-14T13:48:28.610Z,100685.38
2022-08-14T13:51:01.636Z,100678.94
2022-08-14T13:53:33.321Z,100676.00
2022-08-14T13:56:01.331Z,100677.63
2022-08-14T13:58:35.758Z,100676.13
2022-08-14T14:01:04.490Z,100656.91
2022-08-14T14:03:37.691Z,100666.88
2022-08-14T14:06:06.484Z,100673.19
2022-08-14T14:08:46.183Z,100666.44
2022-08-14T14:11:16.446Z,100666.59
2022-08-14T14:13:46.451Z,100657.53
2022-08-14T14:16:15.546Z,100656.84
2022-08-14T14:18:52.266Z,100654.81
2022-08-14T14:21:21.852Z,100646.56
2022-08-14T14:23:49.717Z,100653.06
2022-08-14T14:26:23.283Z,100655.97
2022-08-14T14:28:56.676Z,100652.59
2022-08-14T14:31:30.008Z,100652.72
2022-08-14T14:33:59.925Z,100645.28
2022-08-14T14:36:28.444Z,100650.44
2022-08-14T14:38:56.962Z,100648.13
2022-08-14T14:41:25.687Z,100644.59
2022-08-14T14:43:55.382Z,100647.16
2022-08-14T14:46:36.702Z,100643.91
2022-08-14T14:49:07.710Z,100636.09
2022-08-14T14:51:36.328Z,100633.72
2022-08-14T14:54:09.279Z,100642.66
2022-08-14T14:56:47.857Z,100641.88
2022-08-14T14:59:21.144Z,100635.47
2022-08-14T15:01:49.850Z,100627.25
2022-08-14T15:04:20.270Z,100625.97
2022-08-14T15:06:48.851Z,100630.19
2022-08-14T15:09:17.853Z,100620.28
2022-08-14T15:11:46.888Z,100624.56
2022-08-14T15:14:56.865Z,100622.28
2022-08-14T15:17:06.413Z,100624.31
2022-08-14T15:19:34.464Z,100617.34
2022-08-14T15:22:02.389Z,100609.94
2022-08-14T15:24:29.990Z,100613.31
2022-08-14T15:27:00.294Z,100607.16
2022-08-14T15:29:27.963Z,100602.19
2022-08-14T15:31:55.648Z,100600.38
2022-08-14T15:34:45.498Z,100597.72
2022-08-14T15:37:14.841Z,100603.38
2022-08-14T15:39:44.659Z,100605.75
2022-08-14T15:42:14.435Z,100601.59
2022-08-14T15:44:50.779Z,100596.41
2022-08-14T15:47:28.001Z,100595.50
2022-08-14T15:49:59.382Z,100593.75
2022-08-14T15:52:33.011Z,100602.22
2022-08-14T15:55:04.580Z,100597.47
2022-08-14T15:57:32.238Z,100600.63
2022-08-14T16:00:40.069Z,100603.63
2022-08-14T16:03:08.818Z,100596.78
2022-08-14T16:05:38.883Z,100593.31
2022-08-14T16:08:29.777Z,100586.16
2022-08-14T16:10:56.426Z,100585.53
2022-08-14T16:13:41.348Z,100585.41
2022-08-14T16:16:50.984Z,100588.97
2022-08-14T16:18:59.598Z,100587.81
2022-08-14T16:24:27.635Z,100587.59
2022-08-14T16:27:00.455Z,100589.31
2022-08-14T16:29:29.098Z,100589.59
2022-08-14T16:31:58.728Z,100593.16
2022-08-14T16:34:46.302Z,100580.63
2022-08-14T16:37:17.133Z,100583.22
2022-08-14T16:39:45.386Z,100573.16
2022-08-14T16:40:24.125Z,100585.72
2022-08-14T16:42:39.534Z,100581.19
2022-08-14T16:45:04.831Z,100573.09
2022-08-14T16:47:35.233Z,100576.97
2022-08-14T16:50:08.867Z,100578.84
2022-08-14T16:52:43.943Z,100584.25
2022-08-14T16:55:14.267Z,100571.47
2022-08-14T16:57:50.114Z,100570.75
2022-08-14T17:00:32.968Z,100570.03
2022-08-14T17:03:03.923Z,100563.59
2022-08-14T17:05:33.595Z,100567.94
2022-08-14T17:08:41.470Z,100561.53
2022-08-14T17:11:04.683Z,100551.16
2022-08-14T17:13:48.013Z,100551.34
2022-08-14T17:16:28.638Z,100556.00
2022-08-14T17:19:00.760Z,100552.50
2022-08-14T17:21:31.593Z,100547.75
2022-08-14T17:24:57.337Z,100557.03
2022-08-14T17:26:55.460Z,100550.97
2022-08-14T17:29:24.270Z,100553.19
2022-08-14T17:32:02.012Z,100544.34
2022-08-14T17:34:44.943Z,100542.06
2022-08-14T17:37:24.057Z,100545.91
2022-08-14T17:40:01.706Z,100544.03
2022-08-14T17:42:53.398Z,100547.97
2022-08-14T17:45:27.042Z,100545.34
2022-08-14T17:47:57.484Z,100548.53
2022-08-14T17:51:00.564Z,100544.66
2022-08-14T17:53:30.256Z,100542.00
2022-08-14T17:56:01.170Z,100543.91
2022-08-14T17:58:38.745Z,100538.78
2022-08-14T18:01:13.819Z,100541.41
2022-08-14T18:03:50.938Z,100549.31
2022-08-14T18:06:39.722Z,100544.53
2022-08-14T18:09:24.578Z,100545.97
2022-08-14T18:11:55.615Z,100545.69
2022-08-14T18:14:32.685Z,100552.84
2022-08-14T18:17:02.345Z,100546.00
2022-08-14T18:19:31.049Z,100549.44
2022-08-14T18:22:05.605Z,100551.63
2022-08-14T18:24:51.589Z,100551.38
2022-08-14T18:27:23.241Z,100544.94
2022-08-14T18:29:55.347Z,100543.03
2022-08-14T18:32:47.667Z,100541.91
2022-08-14T18:35:45.637Z,100545.28
2022-08-14T18:38:25.181Z,100547.03
2022-08-14T18:40:55.177Z,100544.69
2022-08-14T18:43:44.239Z,100541.47
2022-08-14T18:46:59.970Z,100539.97
2022-08-14T18:49:14.127Z,100533.06
2022-08-14T18:51:46.008Z,100541.34
2022-08-14T18:54:29.909Z,100541.81
2022-08-14T18:57:01.551Z,100536.16
2022-08-14T18:59:35.710Z,100539.47
2022-08-14T19:02:22.166Z,100538.72
2022-08-14T19:04:59.672Z,100540.41
2022-08-14T19:07:33.921Z,100538.41
2022-08-14T19:10:31.990Z,100540.06
2022-08-14T19:13:11.956Z,100537.25
2022-08-14T19:15:43.630Z,100541.75
2022-08-14T19:18:26.625Z,100545.47
2022-08-14T19:20:56.628Z,100540.59
2022-08-14T19:23:42.360Z,100541.88
2022-08-14T19:26:36.673Z,100541.91
2022-08-14T19:29:20.601Z,100535.00
2022-08-14T19:31:55.676Z,100528.50
2022-08-14T19:34:37.246Z,100542.41
2022-08-14T19:37:09.861Z,100528.53
2022-08-14T19:39:53.817Z,100540.38
2022-08-14T19:42:28.038Z,100540.81
2022-08-14T19:44:57.946Z,100545.72
2022-08-14T19:47:38.778Z,100544.94
2022-08-14T19:50:38.427Z,100532.69
2022-08-14T19:53:11.115Z,100543.31
2022-08-14T19:55:45.233Z,100535.97
2022-08-14T19:58:13.678Z,100531.88
2022-08-14T20:00:51.771Z,100524.56
2022-08-14T20:03:23.921Z,100525.78
2022-08-14T20:05:59.478Z,100522.13
2022-08-14T20:11:00.285Z,100526.19
2022-08-14T20:12:00.329Z,100528.69
2022-08-14T20:14:22.914Z,100527.44
2022-08-14T20:17:01.909Z,100520.50
2022-08-14T20:19:37.627Z,100516.81
2022-08-14T20:22:37.218Z,100523.78
2022-08-14T20:24:54.634Z,100527.44
2022-08-14T20:27:33.629Z,100523.78
2022-08-14T20:30:33.463Z,100519.69
2022-08-14T20:33:04.501Z,100536.41
2022-08-14T20:35:37.890Z,100522.94
2022-08-14T20:38:28.719Z,100521.72
2022-08-14T20:40:57.461Z,100527.03
2022-08-14T20:43:44.434Z,100522.13
2022-08-14T20:46:13.576Z,100527.03
2022-08-14T20:48:57.494Z,100527.03
2022-08-14T20:51:36.929Z,100529.88
2022-08-14T20:54:06.582Z,100511.53
2022-08-14T20:56:36.120Z,100512.34
2022-08-14T20:59:17.338Z,100504.19
2022-08-14T21:01:50.222Z,100507.84
2022-08-14T21:04:26.482Z,100507.44
2022-08-14T21:07:24.440Z,100505.81
2022-08-14T21:10:06.070Z,100505.78
2022-08-14T21:12:35.037Z,100502.13
2022-08-14T21:15:04.977Z,100498.84
2022-08-14T21:17:40.423Z,100494.38
2022-08-14T21:20:25.376Z,100489.09
2022-08-14T21:22:56.519Z,100488.22
2022-08-14T21:25:28.930Z,100488.63
2022-08-14T21:28:00.800Z,100491.88
2022-08-14T21:30:51.102Z,100494.34
2022-08-14T21:33:20.545Z,100492.69
2022-08-14T21:35:49.490Z,100491.88
2022-08-14T21:38:22.638Z,100495.94
2022-08-14T21:41:02.438Z,100490.63
2022-08-14T21:43:54.860Z,100490.66
2022-08-14T21:46:24.155Z,100484.53
2022-08-14T21:48:53.727Z,100480.44
2022-08-14T21:51:53.725Z,100488.59
2022-08-14T21:54:30.183Z,100477.97
2022-08-14T21:56:58.047Z,100476.34
2022-08-14T21:59:29.205Z,100482.47
2022-08-14T22:02:00.515Z,100469.00
2022-08-14T22:04:34.172Z,100474.28
2022-08-14T22:07:02.627Z,100477.13
2022-08-14T22:09:36.386Z,100471.06
2022-08-14T22:12:06.575Z,100473.47
2022-08-14T22:14:43.741Z,100476.31
2022-08-14T22:17:16.216Z,100473.47
2022-08-14T22:19:54.403Z,100471.88
2022-08-14T22:22:22.863Z,100471.06
2022-08-14T22:24:53.160Z,100467.78
2022-08-14T22:27:21.846Z,100464.50
2022-08-14T22:29:54.952Z,100470.63
2022-08-14T22:32:34.959Z,100464.50
2022-08-14T22:35:15.725Z,100464.09
2022-08-14T22:37:44.866Z,100461.22
2022-08-14T22:40:58.113Z,100464.88
2022-08-14T22:43:01.456Z,100466.91
2022-08-14T22:45:36.335Z,100464.88
2022-08-14T22:48:10.645Z,100461.63
2022-08-14T22:50:48.729Z,100457.53
2022-08-14T22:53:21.084Z,100456.72
2022-08-14T22:55:52.162Z,100455.06
2022-08-14T22:58:31.597Z,100455.88
2022-08-14T23:01:10.569Z,100449.75
2022-08-14T23:03:39.960Z,100437.47
2022-08-14T23:07:02.586Z,100443.97
2022-08-14T23:09:36.301Z,100439.50
2022-08-14T23:11:48.399Z,100441.97
2022-08-14T23:14:24.155Z,100448.47
2022-08-14T23:16:57.405Z,100449.25
2022-08-14T23:19:33.840Z,100443.53
2022-08-14T23:22:05.051Z,100443.94
2022-08-14T23:24:33.422Z,100436.59
2022-08-14T23:27:01.005Z,100435.38
2022-08-14T23:29:31.333Z,100436.19
2022-08-14T23:31:59.189Z,100434.13
2022-08-14T23:34:29.474Z,100425.94
2022-08-14T23:36:58.132Z,100423.50
2022-08-14T23:39:34.450Z,100427.97
2022-08-14T23:42:04.698Z,100421.03
2022-08-14T23:44:35.256Z,100416.16
2022-08-14T23:47:10.423Z,100414.09
2022-08-14T23:50:00.737Z,100409.59
2022-08-14T23:52:50.916Z,100411.63
2022-08-14T23:55:16.546Z,100403.47
2022-08-14T23:57:58.496Z,100405.91
